Aérodrome :
LOGIN :

S'inscrire | Disclaimer

   EN    FR    IT 

 










Légende :    VFR   VFR Marginal   IFR   IFR Intensif   IFR Très Intensif
Visi : 
Plafond : 
>= 8 km
>= 3000ft
5 à 8 km
1000 à 3000 ft
1500m à 5 km
500 à 1000 ft
800 à 1500m
200 à 500 ft
< 800m
< 200 ft
Symboles :   Orages  Brouillard  Fortes neiges  Fortes précipitations  Vent > 20 kt
SIGMETs :   Divers  Orages  Givrage  Turbulence  Onde Orograph.  Cendres Volcan.







- Altitude de l'aérodrome : 184 ft
- Code IATA : BRU


EBBR - Bruxelles

DERNIER METAR :
  • 212320Z 18005KT CAVOK M03/M05 Q1016 NOSIG

METARs EXPIRÉS :
  • 212250Z 19006KT CAVOK M03/M05 Q1016 NOSIG
  • 212220Z 18005KT CAVOK M03/M05 Q1017 NOSIG
  • 212150Z 20006KT CAVOK M02/M05 Q1017 NOSIG
  • 212120Z 20007KT CAVOK M02/M05 Q1018 NOSIG
  • 212050Z 20007KT CAVOK M02/M05 Q1018 NOSIG

TAF TAF EBBR
Valide du 22 à 00h jusqu'au 23 à 06h UTC


212320Z 2200/2306 19009KT CAVOK
TEMPO 2210/2214 2000 SN BKN006
PROB40
TEMPO 2210/2214 0700 SN BKN002
BECMG 2213/2215 BKN005
PROB30
TEMPO 2214/2303 BKN018
TEMPO 2303/2306 1800 SN BKN005
PROB40
TEMPO 2303/2306 0700 SN BKN002
Pas de NOTAMs connus pour ce terrain.



MET'MAP, la Météo Aéronautique d'un coup d'oeil ! - Copyright ORBIFLY Décembre 2007 - Disclaimer

ORBIFLY MET'MAP TEAM :

Programmation & Développement : Alexandra Zaïnal
Conception & Développement : Baudouin d'Aumeries
Co-Programmation & Développement : Marc-Olivier Méhu
Soutien technique & logistique : Manuel Goepfert

Contact : metmap@orbifly.com




SOURCES & CREDITS :

   NOAA